« 令和二年魚津消防署海上出初式 魚津市 2020/1/11 sat | トップページ | 定点 富山空港 2020/1/11 sat »

2020/01/12

令和2年富山市消防海上出初式 富山市 2020/1/12 sun

初詣週末の二日目。実はお正月気分も飛び去って、消防さんは実任務に忙しい。

RJNT 112300Z 00000KT 9999 FEW020 BKN150 BKN/// 03/02 Q1012

20200112_iwase_00ja6768

一昨日発生の四方沖の海難事案。今日も早朝から「とやま」さんが、沿岸捜索。

20200112_iwase_01ja6768

日がたって来たので、潮の流れから東部地域の海岸を捜索しています。

20200112_iwase_02jintsu

消防艇の「神通」さんも、同様に捜索中。背後には、沖合の「やひこ」さんらしき船影も。

20200112_iwase_03ja73an

ANA313 RJTT-RJNT JA73AN B737-881

20200112_iwase_04hichou

今朝のお舟は、「飛長」堀内汽船 JD3462 抜錨したので、出初式会場へ

RJNT 120000Z 17004KT 130V220 9999 FEW020 SCT070 BKN150 04/03 Q1012

20200112_iwase_05fdp

富山北消防署和合出張所のラダー

20200112_iwase_06fdp

この時間は市役所前で富山市消防出初式が行われています。

20200112_iwase_07fdp

北署の救助工作車

20200112_iwase_08fdp

今年も会場は、岩瀬漁港。海上分遣所から救助ボート軍団がやってきました。

20200112_iwase_09jintsu

消防艇「神通」は、まだ捜索からの帰路

20200112_iwase_10jintsu

漁港に入るかと思えば、一旦分遣所に寄港。

20200112_iwase_11ja73an

ANA316 RJNT-RJTT JA73AN B737-881

RJNT 120100Z VRB02KT 9999 FEW020 BKN060 BKN080 06/04 Q1012

20200112_iwase_12jintsu

「神通」さんは出初式装束になって、漁港にやって来ました。

20200112_iwase_13ja90an

ANA315 RJTT-RJNT JA90AN B737-8AL

20200112_iwase_14fdp

一同整列して市長待ち

RJNT 120200Z VRB02KT 9999 -SHRA FEW020 SCT060 BKN080 07/05 Q101

20200112_iwase_15jintsu

「神通」さんも所定位置へ

20200112_iwase_16fdp

市長到着して検閲

20200112_iwase_17jintsu

舟艇航進

20200112_iwase_18fdp

救助船、ゴムボート、水上バイクと続きます。海保さんは捜索事案継続で、参加取りやめ。

20200112_iwase_19fdp

救助演技 お、太公望が大物を当てたようです。

20200112_iwase_20fdp

きゃー、白鯨か 水中に引き込まれます。

20200112_iwase_21fdp

消防が到着して、救助索を発射

20200112_iwase_22fdp

水上バイクが颯爽と到着

20200112_iwase_23fdp

撃ち込まれた浮き輪につながった要救助者を引き上げます。

20200112_iwase_24fdp

疾風のように去っていきました。

20200112_iwase_25fdp

次は、水中捜索

20200112_iwase_26b18652

CAL170 RCTP-RJNT B-18652 B737-8Q8

20200112_iwase_27fdp

ダイバーが潜り、水中から引き揚げました。

20200112_iwase_28fdp

ゴムボートがダイバー収容して

20200112_iwase_29fdp

再度、潜行

20200112_iwase_30fdp

無事故祈願で展示終了

20200112_iwase_31jintsu

一斉放水に

20200112_iwase_32jintsu

20200112_iwase_33ja6768

富山県消防防災へり「とやま」もやって来ました。

20200112_iwase_34fdp

カラー放水で盛大に

20200112_iwase_35fdp

でも、今年は短め

20200112_iwase_36fdp

切れが悪いのよ・・・

20200112_iwase_37ja6768

20200112_iwase_38ja6768

トンビさんが監視しています。

20200112_iwase_39ja6768

敬礼

20200112_iwase_40ja6768

20200112_iwase_41ja6768

お手振りして、さようなら。

20200112_iwase_42ja970a

JA970A AW139 JCG

朝の「とやま」さんの後捜索に入っていた海保さんが、空港で給油してから通常パトロールへ

RJNT 120300Z 00000KT 9999 -SHRA FEW020 SCT060 BKN080 08/04 Q1010

20200112_iwase_43ja90an

ANA1181 RJNT-RJCC JA90AN B737-8AL

ほとんど見えない

20200112_iwase_44jintsu

これで終りかと思ったら、「神通」さんは、再度捜索に出航して行きました。

|

« 令和二年魚津消防署海上出初式 魚津市 2020/1/11 sat | トップページ | 定点 富山空港 2020/1/11 sat »

富山空港」カテゴリの記事

警務消防」カテゴリの記事

海上保安庁」カテゴリの記事

コメント

コメントを書く



(ウェブ上には掲載しません)


コメントは記事投稿者が公開するまで表示されません。



« 令和二年魚津消防署海上出初式 魚津市 2020/1/11 sat | トップページ | 定点 富山空港 2020/1/11 sat »